createdAt,value
2022-08-09T00:02:29.024Z,77.60
2022-08-09T00:05:03.604Z,78.00
2022-08-09T00:07:45.197Z,78.30
2022-08-09T00:10:21.605Z,78.70
2022-08-09T00:12:52.997Z,78.50
2022-08-09T00:15:26.515Z,79.00
2022-08-09T00:18:11.568Z,79.90
2022-08-09T00:20:42.427Z,80.50
2022-08-09T00:23:55.056Z,80.90
2022-08-09T00:26:06.542Z,81.30
2022-08-09T00:28:35.195Z,81.40
2022-08-09T00:31:30.667Z,81.80
2022-08-09T00:33:52.678Z,81.60
2022-08-09T00:36:20.503Z,80.80
2022-08-09T00:38:50.782Z,81.30
2022-08-09T00:44:11.191Z,82.00
2022-08-09T00:44:20.005Z,82.30
2022-08-09T00:47:04.692Z,82.50
2022-08-09T00:49:36.683Z,83.10
2022-08-09T00:52:06.106Z,83.10
2022-08-09T00:54:43.070Z,84.00
2022-08-09T00:57:12.205Z,83.40
2022-08-09T00:59:46.702Z,83.50
2022-08-09T01:02:21.746Z,83.60
2022-08-09T01:05:21.863Z,83.80
2022-08-09T01:08:00.352Z,83.60
2022-08-09T01:10:42.410Z,83.80
2022-08-09T01:13:31.034Z,83.60
2022-08-09T01:16:12.936Z,83.60
2022-08-09T01:18:47.699Z,84.00
2022-08-09T01:21:53.789Z,84.00
2022-08-09T01:24:44.710Z,84.50
2022-08-09T01:27:21.878Z,84.70
2022-08-09T01:29:57.034Z,85.10
2022-08-09T01:32:45.430Z,85.00
2022-08-09T01:35:38.292Z,84.80
2022-08-09T01:38:14.940Z,85.00
2022-08-09T01:40:52.429Z,85.40
2022-08-09T01:43:31.130Z,85.60
2022-08-09T01:45:59.039Z,85.50
2022-08-09T01:48:29.765Z,85.80
2022-08-09T01:50:59.785Z,85.80
2022-08-09T01:53:29.215Z,85.90
2022-08-09T01:56:11.298Z,86.20
2022-08-09T01:58:40.268Z,86.50
2022-08-09T02:01:09.215Z,87.20
2022-08-09T02:03:37.603Z,87.50
2022-08-09T02:06:08.066Z,87.50
2022-08-09T02:08:58.016Z,87.60
2022-08-09T02:11:43.760Z,88.00
2022-08-09T02:14:15.862Z,88.40
2022-08-09T02:17:15.154Z,88.50
2022-08-09T02:19:43.607Z,88.70
2022-08-09T02:22:48.521Z,88.80
2022-08-09T02:25:24.152Z,88.80
2022-08-09T02:28:06.737Z,88.60
2022-08-09T02:30:42.705Z,88.60
2022-08-09T02:33:14.461Z,89.10
2022-08-09T02:36:01.853Z,89.00
2022-08-09T02:38:35.804Z,89.20
2022-08-09T02:41:08.637Z,89.50
2022-08-09T02:43:54.234Z,90.10
2022-08-09T02:46:28.450Z,90.60
2022-08-09T02:49:01.225Z,90.30
2022-08-09T02:51:37.122Z,90.40
2022-08-09T02:54:10.969Z,90.40
2022-08-09T02:56:51.190Z,90.70
2022-08-09T02:59:26.125Z,90.90
2022-08-09T03:02:07.222Z,91.00
2022-08-09T03:04:40.893Z,90.90
2022-08-09T03:07:14.106Z,91.00
2022-08-09T03:09:43.428Z,91.10
2022-08-09T03:12:23.545Z,91.50
2022-08-09T03:14:52.213Z,91.70
2022-08-09T03:17:26.985Z,92.00
2022-08-09T03:20:02.765Z,92.20
2022-08-09T03:22:33.322Z,92.40
2022-08-09T03:25:26.973Z,92.70
2022-08-09T03:27:58.326Z,92.80
2022-08-09T03:30:29.143Z,92.90
2022-08-09T03:32:59.396Z,93.40
2022-08-09T03:36:11.101Z,93.10
2022-08-09T03:38:28.512Z,93.30
2022-08-09T03:40:56.661Z,93.50
2022-08-09T03:43:25.259Z,93.70
2022-08-09T03:46:03.829Z,93.90
2022-08-09T03:48:53.977Z,94.00
2022-08-09T03:51:43.940Z,94.30
2022-08-09T03:54:14.721Z,94.40
2022-08-09T03:56:42.326Z,94.60
2022-08-09T03:59:17.041Z,94.60
2022-08-09T04:01:50.725Z,94.60
2022-08-09T04:04:19.017Z,94.10
2022-08-09T04:06:48.869Z,93.60
2022-08-09T04:09:41.793Z,93.30
2022-08-09T04:12:11.847Z,93.30
2022-08-09T04:15:01.864Z,94.00
2022-08-09T04:17:29.447Z,94.00
2022-08-09T04:19:56.753Z,94.30
2022-08-09T04:22:24.976Z,94.30
2022-08-09T04:24:54.990Z,94.20
2022-08-09T04:27:22.429Z,94.00
2022-08-09T04:29:50.518Z,93.80
2022-08-09T04:32:31.426Z,94.00
2022-08-09T04:35:01.292Z,94.10
2022-08-09T04:37:46.074Z,94.40
2022-08-09T04:40:28.857Z,94.70
2022-08-09T04:43:01.997Z,94.90
2022-08-09T04:45:35.770Z,94.90
2022-08-09T04:48:10.445Z,94.90
2022-08-09T04:50:38.235Z,94.80
2022-08-09T04:53:13.592Z,94.70
2022-08-09T04:55:58.413Z,94.80
2022-08-09T04:58:31.692Z,94.60
2022-08-09T05:01:01.459Z,94.60
2022-08-09T05:03:39.898Z,94.50
2022-08-09T05:06:09.958Z,94.40
2022-08-09T05:08:38.638Z,94.10
2022-08-09T05:11:06.688Z,94.30
2022-08-09T05:13:38.823Z,93.80
2022-08-09T05:16:10.412Z,93.70
2022-08-09T05:18:57.667Z,93.50
2022-08-09T05:21:29.851Z,93.50
2022-08-09T05:24:02.078Z,93.10
2022-08-09T05:26:45.265Z,92.90
2022-08-09T05:29:24.282Z,92.70
2022-08-09T05:32:00.609Z,92.50
2022-08-09T05:34:30.661Z,92.20
2022-08-09T05:37:07.359Z,92.10
2022-08-09T05:39:43.333Z,91.60
2022-08-09T05:42:17.826Z,82.80
2022-08-09T05:44:53.251Z,69.80
2022-08-09T05:47:25.248Z,60.40
2022-08-09T05:50:25.346Z,55.60
2022-08-09T05:52:44.240Z,52.80
2022-08-09T05:55:20.983Z,49.80
2022-08-09T05:57:50.813Z,47.50
2022-08-09T06:00:33.649Z,45.60
2022-08-09T06:03:03.312Z,44.30
2022-08-09T06:05:57.690Z,43.40
2022-08-09T06:08:24.465Z,43.60
2022-08-09T06:10:56.242Z,44.20
2022-08-09T06:13:28.634Z,43.80
2022-08-09T06:16:04.513Z,42.90
2022-08-09T06:18:33.115Z,42.40
2022-08-09T06:21:01.208Z,43.30
2022-08-09T06:23:58.662Z,44.20
2022-08-09T06:26:20.969Z,43.40
2022-08-09T06:29:00.087Z,42.30
2022-08-09T06:31:39.748Z,42.50
2022-08-09T06:34:20.322Z,41.90
2022-08-09T06:36:56.483Z,41.80
2022-08-09T06:39:57.999Z,41.90
2022-08-09T06:42:24.892Z,42.20
2022-08-09T06:44:58.551Z,41.50
2022-08-09T06:47:30.271Z,41.50
2022-08-09T06:50:14.128Z,41.10
2022-08-09T06:52:46.985Z,41.50
2022-08-09T06:55:16.252Z,41.30
2022-08-09T06:58:03.263Z,41.10
2022-08-09T07:00:51.346Z,40.50
2022-08-09T07:03:28.569Z,42.00
2022-08-09T07:06:03.978Z,41.90
2022-08-09T07:08:34.090Z,42.80
2022-08-09T07:11:03.358Z,42.20
2022-08-09T07:13:30.914Z,41.50
2022-08-09T07:16:43.206Z,40.70
2022-08-09T07:18:59.563Z,40.30
2022-08-09T07:21:26.637Z,40.70
2022-08-09T07:23:58.513Z,40.70
2022-08-09T07:26:26.060Z,40.50
2022-08-09T07:29:09.263Z,42.00
2022-08-09T07:31:45.334Z,42.10
2022-08-09T07:34:20.304Z,43.30
2022-08-09T07:36:49.383Z,43.80
2022-08-09T07:39:20.396Z,44.30
2022-08-09T07:42:05.240Z,44.20
2022-08-09T07:44:52.424Z,42.90
2022-08-09T07:47:21.655Z,43.50
2022-08-09T07:50:05.105Z,44.60
2022-08-09T07:52:35.894Z,44.90
2022-08-09T07:55:03.961Z,46.90
2022-08-09T07:57:36.407Z,46.90
2022-08-09T08:00:08.965Z,48.10
2022-08-09T08:02:42.242Z,46.60
2022-08-09T08:05:17.523Z,48.40
2022-08-09T08:08:43.575Z,48.30
2022-08-09T08:10:34.696Z,46.90
2022-08-09T08:13:03.939Z,46.90
2022-08-09T08:15:35.532Z,47.30
2022-08-09T08:18:04.965Z,47.80
2022-08-09T08:20:33.609Z,48.00
2022-08-09T08:23:06.686Z,47.60
2022-08-09T08:25:46.567Z,45.90
2022-08-09T08:28:18.204Z,44.70
2022-08-09T08:30:52.998Z,46.00
2022-08-09T08:33:24.195Z,46.00
2022-08-09T08:35:58.765Z,46.90
2022-08-09T08:38:27.891Z,47.60
2022-08-09T08:40:56.536Z,47.60
2022-08-09T08:43:27.097Z,47.80
2022-08-09T08:46:03.702Z,47.40
2022-08-09T08:48:51.627Z,47.90
2022-08-09T08:51:22.946Z,46.90
2022-08-09T08:54:03.235Z,46.80
2022-08-09T08:56:37.508Z,47.80
2022-08-09T08:59:19.381Z,47.50
2022-08-09T09:01:53.052Z,46.50
2022-08-09T09:04:47.536Z,47.50
2022-08-09T09:07:20.453Z,46.80
2022-08-09T09:10:01.541Z,46.20
2022-08-09T09:12:35.568Z,46.20
2022-08-09T09:15:06.417Z,44.60
2022-08-09T09:17:49.243Z,44.70
2022-08-09T09:20:21.622Z,43.40
2022-08-09T09:23:01.795Z,42.50
2022-08-09T09:26:01.911Z,42.10
2022-08-09T09:28:21.604Z,43.50
2022-08-09T09:32:04.529Z,44.10
2022-08-09T09:34:14.180Z,43.50
2022-08-09T09:36:50.994Z,42.50
2022-08-09T09:39:23.471Z,44.00
2022-08-09T09:41:54.292Z,43.80
2022-08-09T09:44:34.287Z,43.80
2022-08-09T09:47:08.540Z,44.30
2022-08-09T09:50:07.807Z,45.20
2022-08-09T09:52:36.397Z,43.90
2022-08-09T09:55:24.252Z,44.30
2022-08-09T09:58:19.723Z,44.30
2022-08-09T10:00:54.796Z,44.50
2022-08-09T10:03:57.801Z,43.60
2022-08-09T10:06:43.483Z,42.70
2022-08-09T10:09:22.330Z,42.50
2022-08-09T10:12:12.531Z,42.80
2022-08-09T10:14:48.461Z,43.80
2022-08-09T10:17:51.152Z,43.50
2022-08-09T10:20:32.269Z,44.30
2022-08-09T10:23:21.946Z,43.40
2022-08-09T10:26:07.678Z,43.40
2022-08-09T10:28:39.049Z,43.10
2022-08-09T10:32:27.921Z,43.40
2022-08-09T10:34:10.831Z,43.60
2022-08-09T10:36:45.113Z,43.60
2022-08-09T10:39:15.712Z,43.30
2022-08-09T10:41:48.659Z,43.70
2022-08-09T10:44:24.804Z,44.00
2022-08-09T10:48:14.447Z,43.40
2022-08-09T10:50:32.748Z,42.70
2022-08-09T10:53:23.934Z,43.40
2022-08-09T10:56:24.651Z,43.70
2022-08-09T10:58:57.240Z,43.30
2022-08-09T11:03:14.335Z,43.00
2022-08-09T11:04:30.604Z,41.80
2022-08-09T11:07:00.268Z,41.50
2022-08-09T11:09:47.939Z,41.80
2022-08-09T11:12:26.535Z,41.40
2022-08-09T11:14:58.980Z,41.40
2022-08-09T11:17:26.406Z,40.20
2022-08-09T11:20:11.981Z,40.10
2022-08-09T11:22:45.875Z,40.40
2022-08-09T11:25:25.897Z,40.70
2022-08-09T11:28:34.375Z,41.80
2022-08-09T11:31:53.153Z,41.70
2022-08-09T11:34:36.773Z,40.10
2022-08-09T11:37:07.338Z,39.20
2022-08-09T11:40:04.007Z,40.10
2022-08-09T11:42:49.947Z,40.10
2022-08-09T11:45:42.958Z,40.20
2022-08-09T11:48:26.408Z,40.20
2022-08-09T11:52:49.109Z,39.80
2022-08-09T11:54:01.257Z,38.70
2022-08-09T11:56:41.493Z,38.80
2022-08-09T11:59:30.356Z,38.70
2022-08-09T12:02:35.067Z,39.40
2022-08-09T12:04:54.543Z,39.20
2022-08-09T12:07:34.514Z,39.40
2022-08-09T12:10:38.038Z,39.20
2022-08-09T12:12:58.278Z,37.60
2022-08-09T12:15:48.867Z,38.50
2022-08-09T12:18:25.948Z,39.40
2022-08-09T12:20:59.165Z,37.80
2022-08-09T12:23:56.500Z,37.60
2022-08-09T12:26:19.536Z,38.60
2022-08-09T12:28:58.186Z,37.50
2022-08-09T12:31:59.013Z,37.70
2022-08-09T12:34:37.908Z,37.90
2022-08-09T12:37:22.255Z,38.00
2022-08-09T12:40:06.999Z,38.00
2022-08-09T12:42:35.008Z,38.10
2022-08-09T12:45:03.877Z,37.70
2022-08-09T12:47:52.031Z,38.80
2022-08-09T12:50:23.380Z,38.40
2022-08-09T12:53:09.161Z,38.50
2022-08-09T12:56:14.627Z,37.00
2022-08-09T12:58:28.068Z,37.40
2022-08-09T13:00:56.486Z,36.80
2022-08-09T13:03:58.510Z,36.60
2022-08-09T13:06:34.382Z,37.20
2022-08-09T13:09:11.173Z,37.40
2022-08-09T13:11:47.079Z,37.50
2022-08-09T13:14:42.182Z,36.90
2022-08-09T13:17:44.439Z,36.90
2022-08-09T13:20:14.103Z,37.40
2022-08-09T13:23:00.960Z,37.10
2022-08-09T13:25:42.006Z,37.40
2022-08-09T13:28:24.360Z,37.20
2022-08-09T13:32:17.771Z,37.10
2022-08-09T13:33:56.857Z,36.60
2022-08-09T13:36:40.887Z,37.90
2022-08-09T13:41:55.511Z,37.40
2022-08-09T13:42:12.204Z,36.80
2022-08-09T13:44:42.042Z,36.50
2022-08-09T13:47:31.557Z,36.90
2022-08-09T13:50:12.639Z,36.90
2022-08-09T13:52:48.015Z,36.50
2022-08-09T13:55:17.815Z,36.90
2022-08-09T13:57:55.966Z,37.30
2022-08-09T14:00:28.642Z,37.80
2022-08-09T14:03:03.579Z,38.00
2022-08-09T14:05:56.513Z,38.60
2022-08-09T14:08:30.296Z,38.70
2022-08-09T14:11:00.169Z,38.50
2022-08-09T14:14:16.331Z,37.80
2022-08-09T14:16:18.151Z,37.60
2022-08-09T14:18:49.277Z,37.90
2022-08-09T14:21:20.142Z,37.50
2022-08-09T14:23:56.691Z,37.60
2022-08-09T14:26:32.865Z,37.70
2022-08-09T14:29:07.535Z,37.60
2022-08-09T14:31:51.872Z,38.70
2022-08-09T14:34:31.017Z,37.90
2022-08-09T14:37:00.747Z,37.70
2022-08-09T14:39:46.438Z,38.10
2022-08-09T14:42:31.456Z,38.30
2022-08-09T14:46:39.402Z,38.60
2022-08-09T14:47:56.730Z,38.10
2022-08-09T14:50:27.078Z,38.20
2022-08-09T14:52:54.576Z,38.80
2022-08-09T14:55:21.746Z,38.80
2022-08-09T14:57:49.726Z,38.10
2022-08-09T15:00:18.021Z,37.90
2022-08-09T15:02:47.158Z,38.30
2022-08-09T15:05:17.064Z,38.10
2022-08-09T15:07:45.430Z,38.30
2022-08-09T15:10:24.727Z,38.80
2022-08-09T15:12:56.084Z,37.80
2022-08-09T15:15:24.589Z,37.60
2022-08-09T15:17:56.263Z,38.00
2022-08-09T15:21:58.780Z,37.70
2022-08-09T15:24:01.871Z,37.70
2022-08-09T15:25:58.811Z,38.30
2022-08-09T15:28:28.014Z,39.10
2022-08-09T15:31:07.283Z,38.90
2022-08-09T15:34:31.163Z,39.10
2022-08-09T15:36:29.094Z,39.00
2022-08-09T15:38:58.668Z,38.60
2022-08-09T15:41:31.253Z,39.40
2022-08-09T15:44:02.041Z,38.70
2022-08-09T15:46:33.190Z,39.40
2022-08-09T15:49:22.134Z,39.40
2022-08-09T15:52:05.246Z,39.10
2022-08-09T15:54:46.123Z,39.30
2022-08-09T15:57:34.374Z,39.30
2022-08-09T16:00:26.612Z,39.60
2022-08-09T16:02:56.230Z,40.00
2022-08-09T16:05:53.865Z,40.00
2022-08-09T16:08:30.619Z,40.30
2022-08-09T16:11:00.129Z,40.10
2022-08-09T16:14:05.817Z,40.00
2022-08-09T16:16:18.630Z,40.60
2022-08-09T16:18:47.182Z,40.90
2022-08-09T16:21:16.828Z,41.00
2022-08-09T16:23:54.655Z,41.20
2022-08-09T16:26:34.965Z,41.00
2022-08-09T16:29:15.061Z,41.10
2022-08-09T16:32:18.561Z,41.20
2022-08-09T16:34:56.691Z,40.70
2022-08-09T16:37:53.639Z,41.10
2022-08-09T16:40:09.227Z,41.10
2022-08-09T16:42:36.871Z,41.10
2022-08-09T16:45:06.790Z,40.90
2022-08-09T16:48:42.405Z,41.50
2022-08-09T16:50:32.430Z,41.80
2022-08-09T16:53:02.014Z,41.50
2022-08-09T16:55:58.367Z,41.70
2022-08-09T16:58:21.089Z,42.00
2022-08-09T17:00:48.890Z,41.40
2022-08-09T17:03:21.922Z,41.50
2022-08-09T17:06:06.854Z,41.80
2022-08-09T17:08:44.438Z,42.30
2022-08-09T17:11:24.514Z,42.50
2022-08-09T17:14:01.971Z,42.30
2022-08-09T17:16:29.529Z,42.30
2022-08-09T17:18:58.395Z,42.10
2022-08-09T17:21:29.148Z,42.70
2022-08-09T17:24:21.312Z,43.10
2022-08-09T17:26:43.179Z,43.40
2022-08-09T17:29:20.745Z,43.30
2022-08-09T17:31:49.324Z,43.00
2022-08-09T17:35:00.826Z,43.50
2022-08-09T17:37:04.258Z,44.10
2022-08-09T17:39:53.267Z,44.40
2022-08-09T17:42:41.571Z,44.60
2022-08-09T17:45:16.095Z,44.60
2022-08-09T17:47:55.602Z,44.90
2022-08-09T17:50:36.939Z,45.30
2022-08-09T17:53:10.408Z,45.50
2022-08-09T17:55:49.415Z,45.60
2022-08-09T17:58:19.157Z,45.70
2022-08-09T18:00:48.086Z,45.60
2022-08-09T18:03:15.749Z,45.20
2022-08-09T18:05:45.363Z,45.40
2022-08-09T18:08:21.934Z,45.80
2022-08-09T18:11:01.075Z,45.60
2022-08-09T18:13:43.000Z,46.10
2022-08-09T18:16:29.526Z,46.20
2022-08-09T18:18:59.462Z,46.20
2022-08-09T18:21:40.931Z,46.80
2022-08-09T18:24:14.235Z,46.60
2022-08-09T18:26:46.881Z,46.70
2022-08-09T18:30:38.429Z,46.90
2022-08-09T18:32:07.497Z,46.90
2022-08-09T18:34:36.513Z,47.20
2022-08-09T18:37:05.239Z,47.30
2022-08-09T18:39:39.384Z,47.40
2022-08-09T18:42:09.368Z,47.80
2022-08-09T18:44:39.222Z,48.00
2022-08-09T18:47:15.805Z,48.50
2022-08-09T18:49:46.911Z,48.70
2022-08-09T18:52:18.909Z,48.90
2022-08-09T18:54:53.446Z,49.60
2022-08-09T18:57:22.932Z,49.50
2022-08-09T18:59:57.427Z,49.90
2022-08-09T19:02:32.296Z,50.00
2022-08-09T19:05:04.115Z,50.00
2022-08-09T19:07:59.228Z,50.20
2022-08-09T19:10:37.387Z,50.20
2022-08-09T19:13:23.107Z,50.20
2022-08-09T19:15:59.164Z,50.20
2022-08-09T19:18:34.087Z,50.20
2022-08-09T19:21:09.434Z,50.20
2022-08-09T19:24:36.304Z,50.70
2022-08-09T19:26:34.843Z,50.50
2022-08-09T19:29:15.756Z,50.80
2022-08-09T19:31:51.071Z,50.90
2022-08-09T19:34:22.933Z,51.30
2022-08-09T19:36:57.213Z,51.90
2022-08-09T19:39:42.900Z,51.50
2022-08-09T19:42:15.196Z,51.80
2022-08-09T19:44:51.082Z,52.00
2022-08-09T19:47:23.355Z,51.80
2022-08-09T19:50:08.930Z,52.00
2022-08-09T19:52:49.606Z,52.20
2022-08-09T19:55:30.539Z,52.10
2022-08-09T19:58:16.622Z,52.20
2022-08-09T20:00:45.755Z,52.30
2022-08-09T20:04:27.953Z,52.50
2022-08-09T20:06:04.102Z,52.70
2022-08-09T20:08:34.922Z,52.90
2022-08-09T20:11:04.542Z,53.30
2022-08-09T20:13:37.189Z,53.50
2022-08-09T20:16:33.029Z,53.70
2022-08-09T20:19:42.900Z,53.90
2022-08-09T20:21:57.065Z,54.20
2022-08-09T20:24:29.865Z,54.50
2022-08-09T20:27:01.287Z,56.00
2022-08-09T20:29:37.073Z,55.70
2022-08-09T20:32:29.907Z,55.40
2022-08-09T20:34:55.631Z,56.00
2022-08-09T20:37:22.913Z,55.90
2022-08-09T20:40:15.847Z,56.10
2022-08-09T20:42:37.942Z,56.80
2022-08-09T20:46:01.009Z,56.80
2022-08-09T20:47:55.136Z,56.60
2022-08-09T20:50:47.133Z,57.10
2022-08-09T20:53:21.066Z,57.00
2022-08-09T20:56:01.889Z,57.20
2022-08-09T20:58:32.919Z,57.40
2022-08-09T21:01:32.521Z,57.50
2022-08-09T21:05:48.261Z,58.40
2022-08-09T21:06:42.580Z,58.00
2022-08-09T21:09:11.667Z,58.20
2022-08-09T21:14:29.584Z,58.20
2022-08-09T21:16:59.438Z,58.50
2022-08-09T21:20:19.097Z,58.50
2022-08-09T21:22:35.973Z,58.70
2022-08-09T21:25:20.839Z,58.80
2022-08-09T21:27:51.793Z,59.00
2022-08-09T21:30:22.170Z,59.00
2022-08-09T21:32:50.520Z,59.30
2022-08-09T21:35:17.885Z,59.40
2022-08-09T21:37:59.909Z,59.50
2022-08-09T21:40:30.972Z,59.70
2022-08-09T21:43:06.222Z,60.00
2022-08-09T21:45:38.868Z,60.50
2022-08-09T21:48:07.845Z,62.10
2022-08-09T21:50:38.713Z,61.80
2022-08-09T21:53:19.902Z,62.70
2022-08-09T21:55:54.582Z,63.10
2022-08-09T21:58:31.134Z,63.60
2022-08-09T22:00:58.728Z,64.00
2022-08-09T22:03:26.235Z,64.10
2022-08-09T22:05:55.009Z,64.30
2022-08-09T22:08:28.036Z,65.10
2022-08-09T22:11:01.107Z,65.70
2022-08-09T22:13:43.936Z,65.30
2022-08-09T22:16:12.046Z,65.30
2022-08-09T22:18:54.283Z,65.90
2022-08-09T22:21:27.356Z,67.40
2022-08-09T22:24:16.912Z,68.60
2022-08-09T22:26:47.855Z,68.50
2022-08-09T22:29:19.346Z,69.10
2022-08-09T22:31:56.666Z,69.60
2022-08-09T22:34:25.547Z,69.80
2022-08-09T22:36:54.001Z,70.50
2022-08-09T22:39:57.601Z,70.80
2022-08-09T22:42:21.331Z,71.30
2022-08-09T22:48:05.207Z,71.20
2022-08-09T22:48:30.228Z,71.10
2022-08-09T22:50:30.097Z,71.50
2022-08-09T22:52:58.639Z,71.60
2022-08-09T22:55:39.663Z,72.00
2022-08-09T22:58:30.955Z,72.20
2022-08-09T23:01:02.296Z,72.10
2022-08-09T23:04:02.485Z,72.00
2022-08-09T23:06:34.965Z,72.10
2022-08-09T23:09:06.908Z,72.50
2022-08-09T23:11:34.338Z,72.60
2022-08-09T23:14:03.127Z,73.00
2022-08-09T23:16:30.546Z,73.30
2022-08-09T23:18:57.567Z,73.70
2022-08-09T23:21:28.742Z,73.60
2022-08-09T23:24:05.995Z,73.70
2022-08-09T23:26:35.894Z,74.10
2022-08-09T23:29:04.342Z,75.00
2022-08-09T23:31:31.630Z,74.90
2022-08-09T23:33:58.755Z,74.70
2022-08-09T23:36:26.008Z,75.70
2022-08-09T23:38:52.994Z,76.00
2022-08-09T23:41:28.367Z,76.10
2022-08-09T23:43:59.828Z,76.10
2022-08-09T23:46:28.815Z,76.30
2022-08-09T23:48:56.735Z,76.50
2022-08-09T23:51:23.784Z,77.30
2022-08-09T23:53:52.491Z,77.20
2022-08-09T23:56:53.766Z,77.60
2022-08-09T23:59:09.608Z,77.30
